Time;durP1;ratioP1;P1;durP2;ratioP2;P2;SDS_P1;SDS_P2;PMS_P1;PMS_P2;Temp;Humidity;BMP_temperature;BMP_pressure;BME280_temperature;BME280_humidity;BME280_pressure;Samples;Min_cycle;Max_cycle;Signal;HPM_P1;HPM_P2
2022/01/12 00:01:54;;;;;;;8.57;5.60;;;;;;;-2.05;100.00;101225.53;5082004;28;20031;-70
2022/01/12 00:04:20;;;;;;;9.67;6.47;;;;;;;-1.92;100.00;101272.28;5090266;28;20028;-70
2022/01/12 00:06:45;;;;;;;8.43;5.70;;;;;;;-2.18;100.00;101233.53;5081045;28;20081;-70
2022/01/12 00:09:11;;;;;;;9.47;5.43;;;;;;;-1.98;100.00;101278.53;5082169;28;20714;-71
2022/01/12 00:11:37;;;;;;;11.07;5.80;;;;;;;-2.31;100.00;101223.81;5077427;28;20028;-70
2022/01/12 00:14:04;;;;;;;21.30;8.40;;;;;;;-2.06;100.00;101281.91;5071101;28;20052;-71
2022/01/12 00:16:30;;;;;;;8.77;5.50;;;;;;;-2.17;100.00;101279.94;5070577;28;20162;-70
2022/01/12 00:18:55;;;;;;;9.40;5.73;;;;;;;-2.14;100.00;101282.81;5070420;28;20036;-71
2022/01/12 00:21:21;;;;;;;7.67;5.37;;;;;;;-2.22;100.00;101271.00;5089679;28;20119;-70
2022/01/12 00:23:47;;;;;;;8.93;5.87;;;;;;;-2.19;100.00;101281.47;5090176;28;20060;-71
2022/01/12 00:26:25;;;;;;;7.53;5.13;;;;;;;-2.19;100.00;101284.88;5090692;28;20032;-71
2022/01/12 00:33:09;;;;;;;8.90;5.63;;;;;;;-2.12;100.00;101284.75;5091016;28;20651;-70
2022/01/12 00:34:28;;;;;;;8.23;4.80;;;;;;;-2.10;100.00;101286.53;5090871;28;20075;-71
2022/01/12 00:36:54;;;;;;;9.47;5.20;;;;;;;-2.17;100.00;101275.81;5088122;28;20385;-72
2022/01/12 00:39:20;;;;;;;8.13;5.30;;;;;;;-2.01;100.00;101305.16;5089289;28;20026;-71
2022/01/12 00:41:47;;;;;;;9.40;6.00;;;;;;;-2.07;100.00;101297.84;5090310;28;20077;-72
2022/01/12 00:44:22;;;;;;;11.47;6.40;;;;;;;-2.02;100.00;101309.34;5090524;28;20470;-73
2022/01/12 00:46:50;;;;;;;10.10;5.73;;;;;;;-2.03;100.00;101299.03;5090237;28;20028;-70
2022/01/12 00:49:15;;;;;;;9.67;5.83;;;;;;;-2.08;100.00;101300.22;5090373;28;20035;-71
2022/01/12 00:51:41;;;;;;;9.63;4.97;;;;;;;-2.13;100.00;101303.19;5090917;28;20028;-70
2022/01/12 00:54:08;;;;;;;9.33;5.80;;;;;;;-2.10;100.00;101305.13;5090132;28;20576;-70
2022/01/12 00:56:34;;;;;;;8.50;5.50;;;;;;;-2.19;100.00;101287.41;5090704;28;20028;-71
2022/01/12 00:58:59;;;;;;;8.87;5.30;;;;;;;-2.14;100.00;101288.75;5072646;28;20036;-71
2022/01/12 01:01:25;;;;;;;10.30;5.93;;;;;;;-2.10;100.00;101307.66;5090843;28;20043;-73
2022/01/12 01:03:51;;;;;;;12.63;6.17;;;;;;;-2.07;100.00;101307.97;5090742;28;20075;-72
2022/01/12 01:06:18;;;;;;;9.97;5.77;;;;;;;-2.15;100.00;101307.19;5090770;28;20405;-71
2022/01/12 01:08:44;;;;;;;10.07;5.70;;;;;;;-2.47;100.00;101263.47;5091045;28;20032;-70
2022/01/12 01:11:10;;;;;;;8.53;5.73;;;;;;;-2.05;100.00;101306.50;5090900;28;20035;-70
2022/01/12 01:13:44;;;;;;;8.47;5.40;;;;;;;-2.02;100.00;101305.91;5090633;28;20181;-71
2022/01/12 01:16:17;;;;;;;8.53;5.23;;;;;;;-1.96;100.00;101304.91;5090244;28;20028;-71
2022/01/12 01:26:57;;;;;;;8.33;5.67;;;;;;;-1.86;100.00;101316.81;5090602;28;20539;-70
2022/01/12 01:29:23;;;;;;;10.20;5.83;;;;;;;-1.89;100.00;101316.53;5090640;28;20024;-70
2022/01/12 01:31:48;;;;;;;8.40;5.70;;;;;;;-1.86;100.00;101321.00;5072504;28;20032;-70
2022/01/12 01:34:15;;;;;;;9.13;5.87;;;;;;;-1.88;100.00;101318.31;5090701;28;20074;-69
2022/01/12 01:36:48;;;;;;;14.43;7.00;;;;;;;-1.98;100.00;101320.69;5089907;28;20093;-70
2022/01/12 01:39:17;;;;;;;15.53;7.17;;;;;;;-1.95;100.00;101324.38;5090858;28;20448;-71
2022/01/12 01:41:48;;;;;;;;;;;;;;;-2.04;100.00;101328.53;5090934;28;20108;-70
2022/01/12 01:54:53;;;;;;;10.63;6.07;;;;;;;-2.14;100.00;101336.81;5090730;28;20579;-71
2022/01/12 01:57:19;;;;;;;10.47;5.80;;;;;;;-2.35;100.00;101319.47;5081698;28;20053;-72
2022/01/12 01:59:47;;;;;;;10.77;5.83;;;;;;;-2.20;100.00;101340.38;5083417;28;20069;-72
2022/01/12 02:02:13;;;;;;;9.43;5.90;;;;;;;-2.29;100.00;101346.28;5075464;28;20042;-71
2022/01/12 02:04:39;;;;;;;9.17;5.80;;;;;;;-2.36;100.00;101346.38;5093957;28;20065;-71
2022/01/12 02:07:04;;;;;;;10.90;6.43;;;;;;;-2.33;100.00;101348.31;5075837;28;20024;-71
2022/01/12 02:09:30;;;;;;;8.50;5.53;;;;;;;-2.42;100.00;101353.31;5094064;28;20060;-71
2022/01/12 02:11:56;;;;;;;11.83;7.30;;;;;;;-2.64;100.00;101307.28;5074361;28;20140;-71
2022/01/12 02:14:21;;;;;;;15.90;7.17;;;;;;;-2.43;100.00;101351.53;5093813;28;20863;-71
2022/01/12 02:16:59;;;;;;;10.30;6.10;;;;;;;-2.43;100.00;101354.06;5093471;28;20064;-70
2022/01/12 02:40:53;;;;;;;8.30;5.73;;;;;;;-2.56;100.00;101394.88;5030633;28;20125;-71
2022/01/12 02:50:36;;;;;;;9.95;6.20;;;;;;;-2.78;100.00;101347.16;5030289;28;20048;-71
2022/01/12 02:53:59;;;;;;;11.73;6.13;;;;;;;-2.48;100.00;101406.72;5030403;28;20034;-69
2022/01/12 02:56:28;;;;;;;12.30;6.33;;;;;;;-2.50;100.00;101399.69;5030148;28;20041;-69
2022/01/12 02:58:56;;;;;;;10.10;6.15;;;;;;;-2.48;100.00;101414.28;5030276;28;20033;-69
2022/01/12 03:03:50;;;;;;;12.07;7.40;;;;;;;-2.48;100.00;101405.78;5030338;28;20081;-69
2022/01/12 03:06:21;;;;;;;11.83;6.60;;;;;;;-2.43;100.00;101422.34;5030109;28;20056;-69
2022/01/12 03:08:48;;;;;;;12.60;6.80;;;;;;;-2.46;100.00;101422.91;5043060;28;20076;-69
2022/01/12 03:11:16;;;;;;;10.27;6.80;;;;;;;-2.43;100.00;101422.34;5092107;28;20058;-69
2022/01/12 03:13:41;;;;;;;12.73;7.10;;;;;;;-2.51;100.00;101418.13;5092622;28;20044;-68
2022/01/12 03:16:16;;;;;;;10.63;6.77;;;;;;;-2.45;100.00;101416.25;5092812;28;20394;-69
2022/01/12 03:18:44;;;;;;;10.53;6.70;;;;;;;-2.33;100.00;101429.25;5092714;28;20032;-68
2022/01/12 03:21:11;;;;;;;11.47;6.30;;;;;;;-2.84;100.00;101360.78;5092694;28;20030;-69
2022/01/12 03:23:37;;;;;;;11.13;6.57;;;;;;;-2.44;100.00;101423.09;5089559;28;20508;-69
2022/01/12 03:26:04;;;;;;;11.67;6.80;;;;;;;-2.42;100.00;101420.72;5092365;28;20028;-69
2022/01/12 03:28:30;;;;;;;9.30;6.33;;;;;;;-2.55;100.00;101383.16;5092163;28;20513;-70
2022/01/12 03:31:07;;;;;;;9.53;6.03;;;;;;;-2.57;100.00;101395.63;5092591;28;20020;-70
2022/01/12 03:38:56;;;;;;;10.70;6.00;;;;;;;-2.38;100.00;101453.16;5092296;28;20109;-70
2022/01/12 03:41:23;;;;;;;10.40;6.37;;;;;;;-2.57;100.00;101441.13;5092411;28;20113;-70
2022/01/12 03:43:49;;;;;;;11.40;6.73;;;;;;;-2.52;100.00;101454.25;5092039;28;20032;-70
2022/01/12 03:46:18;;;;;;;11.13;6.10;;;;;;;-2.46;100.00;101453.25;5073899;28;20040;-69
2022/01/12 03:48:43;;;;;;;13.30;6.38;;;;;;;-2.66;100.00;101432.59;5092180;28;20112;-70
2022/01/12 03:51:09;;;;;;;9.90;6.43;;;;;;;-2.60;100.00;101425.66;5092078;28;20103;-70
2022/01/12 03:53:34;;;;;;;11.27;7.33;;;;;;;-2.39;100.00;101469.06;5092098;28;20473;-71
2022/01/12 03:56:00;;;;;;;10.57;6.07;;;;;;;-2.40;100.00;101462.25;5091890;28;20028;-70
2022/01/12 03:58:26;;;;;;;10.13;6.33;;;;;;;-2.39;100.00;101469.06;5085109;28;20028;-71
2022/01/12 04:00:51;;;;;;;11.80;5.87;;;;;;;-2.49;100.00;101455.47;5082135;28;20028;-71
2022/01/12 04:03:17;;;;;;;12.13;6.73;;;;;;;-2.31;100.00;101474.19;5083876;28;20038;-71
2022/01/12 04:08:21;;;;;;;8.33;5.77;;;;;;;-2.65;100.00;101426.81;5058014;28;20509;-70
2022/01/12 04:10:55;;;;;;;9.70;6.67;;;;;;;-2.32;100.00;101492.66;5089702;28;20028;-70
2022/01/12 04:13:23;;;;;;;10.43;6.60;;;;;;;-2.38;100.00;101486.97;5071940;28;20036;-71
2022/01/12 04:15:52;;;;;;;8.47;5.43;;;;;;;-2.40;100.00;101492.59;5072092;28;20074;-70
2022/01/12 04:18:17;;;;;;;9.05;4.13;;;;;;;-2.47;100.00;101488.50;5088988;28;20467;-70
2022/01/12 04:20:47;;;;;;;16.03;6.80;;;;;;;-2.40;100.00;101488.41;5037456;28;20028;-70
2022/01/12 04:23:17;;;;;;;11.53;5.97;;;;;;;-2.61;100.00;101451.66;5086362;28;20060;-71
2022/01/12 04:25:43;;;;;;;10.53;6.13;;;;;;;-2.47;100.00;101496.09;5072125;28;20028;-70
2022/01/12 04:28:09;;;;;;;10.93;6.73;;;;;;;-2.46;100.00;101508.88;5089947;28;20099;-73
2022/01/12 04:30:35;;;;;;;12.23;6.00;;;;;;;-2.44;100.00;101517.53;5055311;28;20127;-70
2022/01/12 04:33:00;;;;;;;9.47;6.53;;;;;;;-2.37;100.00;101521.59;5090198;28;20118;-72
2022/01/12 04:35:31;;;;;;;12.57;7.23;;;;;;;-2.49;100.00;101493.41;5089711;28;21900;-70
2022/01/12 04:37:57;;;;;;;10.70;6.40;;;;;;;-2.30;100.00;101524.06;5070578;28;20032;-71
2022/01/12 04:40:22;;;;;;;9.60;6.60;;;;;;;-2.26;100.00;101525.28;5090848;28;20089;-69
2022/01/12 04:42:48;;;;;;;15.23;7.33;;;;;;;-2.27;100.00;101536.13;5090986;28;20477;-69
2022/01/12 04:45:37;;;;;;;10.30;6.13;;;;;;;-2.29;100.00;101528.38;5090746;28;20455;-71
2022/01/12 04:50:40;;;;;;;9.43;5.50;;;;;;;-2.26;100.00;101545.50;5091129;28;20036;-71
2022/01/12 04:53:06;;;;;;;13.53;6.47;;;;;;;-2.33;100.00;101543.97;5091131;28;20040;-71
2022/01/12 04:55:32;;;;;;;11.57;5.47;;;;;;;-2.44;100.00;101536.88;5090979;28;20097;-71
2022/01/12 04:57:58;;;;;;;13.37;5.83;;;;;;;-2.49;100.00;101548.16;5090794;28;20032;-71
2022/01/12 05:00:25;;;;;;;14.90;6.73;;;;;;;-2.44;100.00;101541.94;5091092;28;20024;-71
2022/01/12 05:13:42;;;;;;;8.97;5.33;;;;;;;-2.42;100.00;101569.91;5046553;28;20497;-71
2022/01/12 05:16:11;;;;;;;10.13;5.80;;;;;;;-2.44;100.00;101569.75;5090658;28;20036;-71
2022/01/12 05:18:38;;;;;;;11.20;5.68;;;;;;;-2.41;100.00;101580.19;5090449;28;20508;-72
2022/01/12 05:21:04;;;;;;;8.80;5.70;;;;;;;-2.79;100.00;101514.69;5083216;28;20032;-71
2022/01/12 05:23:31;;;;;;;10.50;5.53;;;;;;;-2.58;100.00;101564.84;5077812;28;20035;-71
2022/01/12 05:25:56;;;;;;;9.63;5.17;;;;;;;-2.42;100.00;101585.97;5090191;28;20024;-72
2022/01/12 05:28:23;;;;;;;9.80;5.43;;;;;;;-2.69;100.00;101533.34;5090429;28;20081;-71
2022/01/12 05:30:50;;;;;;;11.10;5.27;;;;;;;-2.45;100.00;101591.59;5053132;28;20047;-72
2022/01/12 05:33:16;;;;;;;9.93;5.70;;;;;;;-2.50;100.00;101599.44;5078091;28;20035;-71
2022/01/12 05:35:43;;;;;;;11.30;5.07;;;;;;;-2.35;100.00;101605.25;5082104;28;20024;-70
2022/01/12 05:38:12;;;;;;;10.27;5.47;;;;;;;-2.30;100.00;101606.63;5084060;28;20028;-71
2022/01/12 05:40:39;;;;;;;9.68;5.78;;;;;;;-2.23;100.00;101619.22;5075955;28;20055;-70
2022/01/12 05:43:06;;;;;;;8.90;5.30;;;;;;;-2.21;100.00;101626.94;5077046;28;20081;-69
2022/01/12 05:45:33;;;;;;;9.07;4.87;;;;;;;-2.18;100.00;101620.59;5067357;28;20056;-70
2022/01/12 05:50:28;;;;;;;10.37;6.20;;;;;;;-2.09;100.00;101627.34;5093752;28;20040;-70
2022/01/12 05:52:54;;;;;;;9.17;4.77;;;;;;;-2.13;100.00;101621.97;5086942;28;20070;-70
2022/01/12 05:55:20;;;;;;;10.47;5.40;;;;;;;-2.29;99.77;101594.13;5089871;28;20266;-71
2022/01/12 05:57:47;;;;;;;8.37;4.87;;;;;;;-2.02;98.84;101637.38;5081579;28;20093;-71
2022/01/12 06:00:15;;;;;;;14.53;7.20;;;;;;;-2.05;98.82;101629.47;5081580;28;20467;-71
2022/01/12 06:02:41;;;;;;;37.67;16.40;;;;;;;-1.91;98.72;101636.00;5082676;28;20107;-71
2022/01/12 06:05:07;;;;;;;222.30;84.27;;;;;;;-1.79;99.42;101660.06;5083355;28;20106;-71
2022/01/12 06:07:33;;;;;;;18.13;9.33;;;;;;;-1.89;98.56;101657.31;5086743;28;20028;-71
2022/01/12 06:10:05;;;;;;;151.83;58.70;;;;;;;-1.95;98.97;101660.09;5092754;28;20028;-67
2022/01/12 06:12:30;;;;;;;124.47;50.63;;;;;;;-1.97;99.23;101667.53;5047996;28;20210;-70
2022/01/12 06:14:56;;;;;;;152.97;61.27;;;;;;;-2.24;99.76;101635.13;5084319;28;20118;-71
2022/01/12 06:17:22;;;;;;;53.97;26.40;;;;;;;-2.30;99.50;101639.50;5082822;28;20106;-70
2022/01/12 06:19:48;;;;;;;54.77;26.33;;;;;;;-2.19;100.00;101682.03;5087575;28;20064;-68
2022/01/12 06:22:13;;;;;;;65.77;36.13;;;;;;;-2.07;100.00;101694.19;5088060;28;20109;-72
2022/01/12 06:24:39;;;;;;;54.43;35.70;;;;;;;-2.21;100.00;101688.56;5079904;28;20028;-72
2022/01/12 06:27:05;;;;;;;32.60;21.27;;;;;;;-2.09;100.00;101699.09;5084716;28;20027;-71
2022/01/12 06:32:25;;;;;;;16.90;9.63;;;;;;;-2.02;100.00;101701.56;4987025;28;20108;-71
2022/01/12 06:34:50;;;;;;;18.73;10.20;;;;;;;-1.83;100.00;101704.41;4982187;28;20528;-71
2022/01/12 06:37:16;;;;;;;16.50;12.87;;;;;;;-1.91;100.00;101734.72;4956910;28;20515;-72
2022/01/12 06:39:41;;;;;;;17.90;11.30;;;;;;;-2.00;100.00;101707.66;4984273;28;20071;-72
2022/01/12 06:42:07;;;;;;;22.77;11.80;;;;;;;-1.88;100.00;101720.75;4980312;28;20062;-72
2022/01/12 06:44:33;;;;;;;18.00;12.20;;;;;;;-1.85;100.00;101730.31;4981076;28;20097;-71
2022/01/12 06:47:02;;;;;;;17.90;12.60;;;;;;;-1.89;100.00;101729.06;4981143;28;20042;-71
2022/01/12 06:49:28;;;;;;;19.17;11.13;;;;;;;-1.93;100.00;101726.03;4982783;28;20039;-71
2022/01/12 06:51:53;;;;;;;13.03;9.13;;;;;;;-2.24;100.00;101682.25;4980911;28;20045;-71
2022/01/12 06:54:19;;;;;;;19.03;14.03;;;;;;;-1.92;100.00;101731.25;4965403;28;20053;-71
2022/01/12 06:56:44;;;;;;;26.27;19.80;;;;;;;-1.93;100.00;101738.69;4979640;28;20050;-71
2022/01/12 06:59:10;;;;;;;15.57;8.70;;;;;;;-2.04;98.97;101724.91;4981373;28;20034;-71
2022/01/12 07:01:36;;;;;;;13.47;7.93;;;;;;;-2.05;100.00;101735.75;4980929;28;20130;-71
2022/01/12 07:04:01;;;;;;;17.53;10.03;;;;;;;-2.10;100.00;101750.44;4979968;28;20035;-71
2022/01/12 07:06:27;;;;;;;21.33;12.83;;;;;;;-2.06;100.00;101750.03;4981311;28;20062;-71
2022/01/12 07:08:52;;;;;;;16.37;9.17;;;;;;;-2.04;100.00;101756.16;5023653;28;20028;-71
2022/01/12 07:11:18;;;;;;;17.33;11.23;;;;;;;-2.12;100.00;101760.41;5081776;28;20504;-70
2022/01/12 07:13:44;;;;;;;24.90;16.67;;;;;;;-2.06;100.00;101754.19;5083070;28;20052;-71
2022/01/12 07:16:10;;;;;;;16.93;9.97;;;;;;;-2.13;100.00;101717.19;5080125;28;20047;-71
2022/01/12 07:18:37;;;;;;;18.50;12.03;;;;;;;-1.93;100.00;101757.31;5080941;28;20032;-70
2022/01/12 07:21:03;;;;;;;22.53;13.20;;;;;;;-1.83;100.00;101754.16;5074403;28;20500;-70
2022/01/12 07:23:29;;;;;;;41.43;26.73;;;;;;;-1.79;100.00;101766.41;5092847;28;20056;-71
2022/01/12 07:25:54;;;;;;;12.10;6.53;;;;;;;-1.83;100.00;101769.34;5092646;28;20112;-70
2022/01/12 07:28:21;;;;;;;12.77;5.67;;;;;;;-1.99;98.82;101781.97;5091667;28;20153;-70
2022/01/12 07:30:47;;;;;;;16.77;9.43;;;;;;;-2.08;98.67;101786.94;5079626;28;20040;-71
2022/01/12 07:33:13;;;;;;;19.93;12.53;;;;;;;-2.06;98.86;101784.56;5082579;28;20060;-71
2022/01/12 07:35:40;;;;;;;11.03;5.80;;;;;;;-2.10;98.51;101797.63;5085557;28;20027;-70
2022/01/12 07:38:06;;;;;;;23.63;17.03;;;;;;;-1.96;99.49;101787.34;5091744;28;20085;-70
2022/01/12 07:40:33;;;;;;;10.77;6.07;;;;;;;-2.22;98.12;101744.03;5091868;28;20440;-70
2022/01/12 07:42:59;;;;;;;23.63;13.80;;;;;;;-1.84;99.50;101796.28;5091649;28;20023;-69
2022/01/12 07:45:24;;;;;;;14.17;8.40;;;;;;;-1.76;100.00;101791.13;5091696;28;20028;-70
2022/01/12 07:47:50;;;;;;;16.20;8.07;;;;;;;-1.73;99.15;101794.00;5091336;28;20016;-70
2022/01/12 07:50:16;;;;;;;15.60;6.80;;;;;;;-1.80;99.30;101788.25;5066701;28;20444;-70
2022/01/12 07:52:42;;;;;;;11.30;6.03;;;;;;;-2.06;98.87;101772.78;5079605;28;20037;-71
2022/01/12 07:55:08;;;;;;;15.30;6.93;;;;;;;-1.99;100.00;101807.28;5083150;28;20086;-71
2022/01/12 07:57:34;;;;;;;14.03;7.60;;;;;;;-1.99;100.00;101807.28;5063036;28;20472;-70
2022/01/12 07:59:59;;;;;;;13.83;8.20;;;;;;;-2.06;99.84;101817.47;5081707;28;20028;-71
2022/01/12 08:02:25;;;;;;;12.67;7.27;;;;;;;-2.02;99.55;101815.44;5044519;28;20475;-70
2022/01/12 08:04:51;;;;;;;13.67;6.77;;;;;;;-1.92;99.39;101821.50;5062740;28;20028;-70
2022/01/12 08:07:17;;;;;;;10.10;6.30;;;;;;;-1.93;99.80;101822.22;5079927;28;20025;-70
2022/01/12 08:09:44;;;;;;;10.57;6.23;;;;;;;-1.97;100.00;101815.91;5044608;28;20491;-70
2022/01/12 08:12:10;;;;;;;14.27;6.97;;;;;;;-1.93;99.64;101818.06;5081418;28;20493;-70
2022/01/12 08:14:36;;;;;;;11.83;7.00;;;;;;;-1.88;100.00;101827.06;5081094;28;20071;-71
2022/01/12 08:17:02;;;;;;;13.40;6.83;;;;;;;-1.91;99.58;101825.81;5080170;28;20083;-70
2022/01/12 08:19:29;;;;;;;12.87;7.00;;;;;;;-1.80;99.39;101836.38;5080178;28;20025;-71
2022/01/12 08:21:55;;;;;;;13.07;6.97;;;;;;;-1.83;99.11;101851.22;5080779;28;20023;-71
2022/01/12 08:24:21;;;;;;;14.83;8.40;;;;;;;-1.78;99.98;101841.63;5082154;28;20111;-70
2022/01/12 08:26:47;;;;;;;12.50;6.73;;;;;;;-1.77;98.76;101845.03;5079890;28;20460;-70
2022/01/12 08:29:15;;;;;;;13.27;7.00;;;;;;;-1.75;99.84;101851.19;5081159;28;20039;-70
2022/01/12 08:31:45;;;;;;;12.03;6.27;;;;;;;-1.69;98.02;101844.25;5081703;28;20020;-70
2022/01/12 08:34:11;;;;;;;13.17;7.23;;;;;;;-2.02;97.86;101774.03;5080279;28;20134;-71
2022/01/12 08:36:41;;;;;;;11.90;6.90;;;;;;;-1.58;97.52;101853.91;5081599;28;20038;-71
2022/01/12 08:39:08;;;;;;;14.77;7.13;;;;;;;-1.51;97.49;101852.91;5082048;28;20371;-71
2022/01/12 08:41:35;;;;;;;9.80;6.63;;;;;;;-1.41;96.00;101854.81;5080707;28;20017;-71
2022/01/12 08:44:01;;;;;;;13.13;7.30;;;;;;;-1.37;95.91;101846.78;5080052;28;20031;-71
2022/01/12 08:46:27;;;;;;;13.07;7.27;;;;;;;-1.41;95.98;101852.25;5081400;28;20020;-70
2022/01/12 08:48:52;;;;;;;19.77;12.83;;;;;;;-1.35;96.39;101852.94;5079849;28;20021;-70
2022/01/12 08:51:17;;;;;;;16.03;9.00;;;;;;;-1.42;94.97;101840.31;5083228;28;20039;-70
2022/01/12 08:53:43;;;;;;;13.57;7.57;;;;;;;-1.42;96.17;101837.78;5079820;28;20047;-70
2022/01/12 08:56:08;;;;;;;13.37;7.43;;;;;;;-1.35;95.35;101840.25;5079109;28;20028;-70
2022/01/12 08:58:34;;;;;;;14.03;8.10;;;;;;;-1.58;94.88;101795.66;5080512;28;20058;-70
2022/01/12 09:01:03;;;;;;;12.53;8.20;;;;;;;-1.76;95.00;101775.94;5081076;28;20453;-70
2022/01/12 09:03:29;;;;;;;14.70;7.85;;;;;;;-1.57;95.71;101821.84;5079723;28;20104;-70
2022/01/12 09:05:55;;;;;;;12.23;7.33;;;;;;;-1.50;95.22;101822.66;5080001;28;20542;-70
2022/01/12 09:08:20;;;;;;;13.97;7.10;;;;;;;-1.50;94.54;101831.91;5080852;28;20033;-71
2022/01/12 09:10:46;;;;;;;18.10;8.30;;;;;;;-1.95;93.03;101784.97;5078436;28;20402;-70
2022/01/12 09:13:11;;;;;;;13.87;7.80;;;;;;;-1.57;95.75;101834.53;5087381;28;20032;-71
2022/01/12 09:15:37;;;;;;;13.07;7.60;;;;;;;-1.53;94.52;101832.50;5066869;28;20091;-71
2022/01/12 09:18:02;;;;;;;16.60;10.30;;;;;;;-1.42;94.58;101833.66;5075715;28;20463;-71
2022/01/12 09:20:28;;;;;;;34.37;17.07;;;;;;;-1.34;94.31;101824.31;5070007;28;20035;-72
2022/01/12 09:22:54;;;;;;;15.37;7.93;;;;;;;-1.31;94.26;101828.09;5078085;28;20024;-72
2022/01/12 09:25:19;;;;;;;12.80;6.53;;;;;;;-1.36;93.35;101831.78;5080516;28;20039;-69
2022/01/12 09:27:45;;;;;;;10.93;5.67;;;;;;;-1.58;95.39;101832.72;5078518;28;20024;-71
2022/01/12 09:30:13;;;;;;;10.70;6.20;;;;;;;-1.58;94.81;101822.59;5081065;28;20021;-71
2022/01/12 09:32:38;;;;;;;12.37;6.20;;;;;;;-1.65;94.46;101838.78;5016591;28;20037;-71
2022/01/12 09:35:04;;;;;;;12.60;7.00;;;;;;;-1.73;97.02;101831.97;5017843;28;20033;-72
2022/01/12 09:37:30;;;;;;;11.03;5.83;;;;;;;-1.92;96.62;101826.56;5020354;28;20091;-72
2022/01/12 09:39:55;;;;;;;11.10;5.93;;;;;;;-1.83;97.47;101830.97;5027230;28;20119;-72
2022/01/12 09:42:21;;;;;;;11.53;6.27;;;;;;;-1.75;98.33;101828.38;5010936;28;20033;-72
2022/01/12 09:44:48;;;;;;;16.77;9.20;;;;;;;-1.65;96.24;101813.44;5027316;28;20173;-72
2022/01/12 09:47:15;;;;;;;12.37;7.80;;;;;;;-1.52;94.20;101808.97;5009842;28;20041;-73
2022/01/12 09:49:45;;;;;;;18.33;8.23;;;;;;;-1.38;91.70;101791.81;5008122;28;20130;-73
2022/01/12 09:52:11;;;;;;;13.17;7.77;;;;;;;-1.34;92.77;101799.00;5008023;28;20033;-73
2022/01/12 09:54:37;;;;;;;17.90;10.93;;;;;;;-1.45;91.34;101807.09;5008342;28;20045;-73
2022/01/12 09:57:04;;;;;;;17.83;11.57;;;;;;;-1.44;93.12;101799.66;5007902;28;20074;-74
2022/01/12 09:59:29;;;;;;;17.07;9.77;;;;;;;-1.38;94.81;101800.31;5008127;28;20041;-73
2022/01/12 10:01:56;;;;;;;17.30;9.10;;;;;;;-1.28;94.39;101809.78;5022586;28;20033;-73
2022/01/12 10:04:24;;;;;;;14.73;6.77;;;;;;;-1.32;92.69;101811.09;5027780;28;20189;-73
2022/01/12 10:06:56;;;;;;;13.40;6.20;;;;;;;-1.35;93.99;101808.22;5011048;28;20041;-73
2022/01/12 10:09:46;;;;;;;11.90;5.77;;;;;;;-1.41;92.79;101805.03;5024759;28;20482;-73
2022/01/12 10:12:13;;;;;;;;;;;;;;;-1.42;92.88;101800.72;5090723;28;20024;-73
2022/01/12 10:14:50;;;;;;;11.50;6.87;;;;;;;-1.43;94.14;101803.97;5090333;28;19923;-73
2022/01/12 10:17:30;;;;;;;11.60;6.47;;;;;;;-1.37;96.00;101791.06;5090408;28;20028;-73
2022/01/12 10:20:11;;;;;;;11.67;6.27;;;;;;;-1.39;93.16;101783.28;5089994;28;20104;-73
2022/01/12 10:22:39;;;;;;;13.53;6.77;;;;;;;-1.28;95.76;101802.19;5092801;28;20482;-73
2022/01/12 10:25:20;;;;;;;15.10;7.77;;;;;;;-1.37;93.85;101801.19;5093814;28;20024;-73
2022/01/12 10:27:46;;;;;;;13.90;6.60;;;;;;;-1.31;93.48;101799.31;5093327;28;20028;-73
2022/01/12 10:30:27;;;;;;;11.20;6.17;;;;;;;-1.24;93.63;101790.72;5093320;28;20508;-73
2022/01/12 10:33:09;;;;;;;13.00;7.13;;;;;;;-1.25;92.32;101794.88;5093794;28;20049;-73
2022/01/12 10:35:37;;;;;;;12.03;6.07;;;;;;;-1.45;94.59;101780.13;5093542;28;20024;-73
2022/01/12 10:38:13;;;;;;;14.03;7.03;;;;;;;-1.34;93.23;101791.41;5093803;28;20089;-72
2022/01/12 10:40:46;;;;;;;10.80;5.83;;;;;;;-1.36;92.92;101803.00;5093197;28;20455;-73
2022/01/12 10:43:37;;;;;;;11.90;5.67;;;;;;;-1.37;93.68;101809.69;5082248;28;20032;-73
2022/01/12 10:46:09;;;;;;;20.27;7.60;;;;;;;-1.53;94.76;101755.63;5055113;28;20036;-73
2022/01/12 10:48:39;;;;;;;14.23;5.93;;;;;;;-1.41;92.33;101791.47;5073049;28;20056;-73
2022/01/12 10:51:05;;;;;;;12.70;5.83;;;;;;;-1.33;92.67;101796.63;5077120;28;20023;-73
2022/01/12 10:53:35;;;;;;;16.70;7.20;;;;;;;-1.37;91.08;101783.44;5093263;28;20024;-73
2022/01/12 10:56:12;;;;;;;11.63;5.90;;;;;;;-1.40;90.12;101804.28;5058210;28;20024;-73
2022/01/12 10:58:41;;;;;;;16.10;6.17;;;;;;;-1.27;93.12;101798.00;5092947;28;20024;-72
2022/01/12 11:01:08;;;;;;;12.50;5.88;;;;;;;-1.15;91.38;101777.41;5075251;28;20034;-73
2022/01/12 11:03:34;;;;;;;14.10;5.23;;;;;;;-1.06;89.95;101799.34;5093014;28;20032;-72
2022/01/12 11:06:00;;;;;;;12.90;6.90;;;;;;;-1.01;90.85;101809.25;5093065;28;20032;-72
2022/01/12 11:08:27;;;;;;;16.23;6.90;;;;;;;-0.99;91.32;101800.16;5092851;28;20032;-72
2022/01/12 11:10:55;;;;;;;15.00;7.40;;;;;;;-0.94;90.91;101800.66;5093082;28;20039;-74
2022/01/12 11:13:21;;;;;;;14.70;5.73;;;;;;;-1.12;91.66;101774.28;5093172;28;20040;-72
2022/01/12 11:15:48;;;;;;;15.30;6.07;;;;;;;-1.16;89.86;101780.66;5092617;28;20063;-69
2022/01/12 11:18:15;;;;;;;16.77;8.57;;;;;;;-1.03;91.04;101797.16;5092658;28;20043;-72
2022/01/12 11:20:43;;;;;;;19.23;9.03;;;;;;;-1.10;89.49;101800.66;5092609;28;20036;-72
2022/01/12 11:23:16;;;;;;;10.13;4.87;;;;;;;-1.21;91.64;101791.03;5093048;28;20024;-71
2022/01/12 11:25:43;;;;;;;10.20;5.03;;;;;;;-1.11;91.17;101793.78;5092830;28;20055;-69
2022/01/12 11:28:19;;;;;;;8.40;5.20;;;;;;;-1.09;90.49;101799.06;5092627;28;20024;-75
2022/01/12 11:30:59;;;;;;;9.77;5.30;;;;;;;-1.19;89.92;101789.56;5092634;28;20397;-72
2022/01/12 11:33:30;;;;;;;9.55;4.85;;;;;;;-1.28;87.59;101792.03;5092357;28;20032;-70
2022/01/12 11:36:01;;;;;;;11.93;6.27;;;;;;;-1.52;90.45;101738.06;5092452;28;20028;-72
2022/01/12 11:38:35;;;;;;;10.23;5.37;;;;;;;-1.15;88.74;101784.09;5091463;28;20534;-69
2022/01/12 11:41:12;;;;;;;11.70;5.47;;;;;;;-1.18;88.92;101782.13;5092388;28;20050;-72
2022/01/12 11:43:46;;;;;;;11.40;5.40;;;;;;;-1.13;89.04;101792.75;5092199;28;20021;-72
2022/01/12 11:46:16;;;;;;;10.07;5.40;;;;;;;-1.17;87.56;101791.53;5092245;28;20032;-74
2022/01/12 11:48:41;;;;;;;;;;;;;;;-1.31;88.77;101790.09;5092882;28;20024;-73
2022/01/12 11:51:07;;;;;;;15.03;6.47;;;;;;;-1.22;89.98;101795.22;5091879;28;19911;-73
2022/01/12 11:53:43;;;;;;;13.17;7.07;;;;;;;-1.17;89.72;101791.53;5092441;28;20111;-70
2022/01/12 11:56:18;;;;;;;17.23;6.17;;;;;;;-1.10;85.47;101793.06;5091867;28;20107;-72
2022/01/12 11:58:57;;;;;;;13.50;6.67;;;;;;;-1.12;87.05;101786.03;5091880;28;20024;-70
2022/01/12 12:01:36;;;;;;;12.05;5.47;;;;;;;-1.36;86.21;101754.84;5091709;28;20462;-72
2022/01/12 12:04:03;;;;;;;9.83;5.73;;;;;;;-1.08;86.87;101785.66;5088609;28;20039;-72
2022/01/12 12:06:29;;;;;;;13.37;7.63;;;;;;;-1.07;84.86;101789.94;5092015;28;20028;-73
2022/01/12 12:09:01;;;;;;;17.20;9.90;;;;;;;-1.01;87.30;101800.72;5091625;28;20024;-73
2022/01/12 12:11:28;;;;;;;18.97;11.73;;;;;;;-1.25;86.99;101753.47;5089782;28;20032;-72
2022/01/12 12:14:08;;;;;;;16.27;8.90;;;;;;;-1.32;86.50;101742.69;5091698;28;20052;-73
2022/01/12 12:16:35;;;;;;;;;;;;;;;-1.02;86.22;101804.03;5092056;28;20032;-71
2022/01/12 12:19:03;;;;;;;12.27;5.60;;;;;;;-1.08;89.03;101803.38;5089771;28;19923;-73
2022/01/12 12:21:29;;;;;;;12.60;7.07;;;;;;;-1.07;87.79;101805.16;5089933;28;20032;-72
2022/01/12 12:23:54;;;;;;;13.47;7.40;;;;;;;-1.06;88.80;101807.88;5091557;28;20039;-73
2022/01/12 12:26:22;;;;;;;7.73;4.87;;;;;;;-1.04;88.75;101805.50;5091487;28;20036;-72
2022/01/12 12:28:55;;;;;;;11.40;6.17;;;;;;;-1.34;86.04;101776.19;5091370;28;20043;-71
2022/01/12 12:31:26;;;;;;;11.13;5.97;;;;;;;-1.13;86.10;101820.63;5091363;28;20489;-69
2022/01/12 12:34:05;;;;;;;9.10;4.33;;;;;;;-1.21;86.54;101814.75;5091479;28;20537;-71
2022/01/12 12:36:31;;;;;;;12.95;5.45;;;;;;;-1.18;88.71;101817.59;5091323;28;20505;-72
2022/01/12 12:39:12;;;;;;;11.50;6.77;;;;;;;-1.07;91.52;101822.91;5091374;28;20398;-71